首页
METAR-TAF:

METAR-TAF

机场 :

喀什机场

喀什, 中华人民共和国

纬度: 39-28N, 经度: 075-59E, 海拔: 1291米

当前天气观测

该预报发布于1小时和3分钟前的07:00 UTC
风速6节,风向西转西北,在西西北之间变化
温度 13°C
湿度 67%
气压 1023 hPa
能见度10公里或以上
少量云层高于3000英尺
阴天层高于4000英尺

METAR: ZWSH 220700Z 29003MPS 260V320 9999 FEW030 OVC040 13/07 Q1023 NOSIG

时间: 16:03 (08:03 UTC)

预报

该预报发布于5小时和0分钟前的03:03 UTC
预报有效从22日的 06点(UTC)到 23日的 06点(UTC)
风速8节,风向东转东北
能見度: 6000
多云层高于4000英尺
成为
从 22日的 14点(UTC)到 22日的 15点(UTC)
风速8节,风向西北

TAF: ZWSH 220303Z 2206/2306 06004MPS 6000 BKN040 TX17/2209Z TN10/2300Z BECMG 2214/2215 32004MPS

超过4000个机场的气象观测和天气预报(METAR&TAF报告)。

可查询的气象台以黄色和红色小点在地图上表示。

将鼠标移到小点上方,可查看气象台名称。

然后点击查看天气观测和预报。

如需切换地图:点击带黑十字的绿色按钮放大地图;点击带横线的绿色按钮缩小地图;或者点击绿色箭头查看邻近地区的地图。


METAR-TAF: